createdAt,value
2019-03-17T00:02:18.090Z,2.90
2019-03-17T00:04:49.692Z,3.03
2019-03-17T00:07:20.206Z,2.80
2019-03-17T00:09:49.738Z,3.10
2019-03-17T00:12:19.168Z,3.13
2019-03-17T00:14:49.461Z,2.03
2019-03-17T00:17:19.355Z,2.67
2019-03-17T00:19:51.121Z,2.20
2019-03-17T00:22:23.363Z,3.23
2019-03-17T00:25:09.127Z,2.50
2019-03-17T00:27:43.568Z,2.27
2019-03-17T00:30:15.060Z,2.10
2019-03-17T00:32:44.692Z,2.47
2019-03-17T00:35:14.179Z,2.33
2019-03-17T00:37:43.769Z,2.60
2019-03-17T00:40:13.472Z,3.10
2019-03-17T00:42:46.346Z,3.23
2019-03-17T00:45:15.882Z,3.20
2019-03-17T00:47:45.619Z,3.50
2019-03-17T00:50:15.200Z,3.40
2019-03-17T00:52:44.646Z,3.50
2019-03-17T00:55:15.333Z,3.83
2019-03-17T00:57:47.704Z,3.63
2019-03-17T01:00:18.005Z,3.87
2019-03-17T01:02:49.025Z,3.80
2019-03-17T01:05:21.242Z,3.33
2019-03-17T01:07:52.302Z,3.73
2019-03-17T01:10:22.067Z,4.00
2019-03-17T01:13:09.864Z,4.40
2019-03-17T01:15:39.414Z,4.30
2019-03-17T01:18:09.185Z,4.07
2019-03-17T01:20:38.773Z,4.80
2019-03-17T01:23:08.383Z,4.90
2019-03-17T01:25:37.964Z,4.33
2019-03-17T01:28:07.888Z,4.70
2019-03-17T01:30:37.812Z,3.77
2019-03-17T01:33:08.249Z,4.53
2019-03-17T01:35:37.825Z,4.63
2019-03-17T01:38:07.397Z,4.57
2019-03-17T01:40:36.939Z,4.17
2019-03-17T01:43:06.925Z,4.60
2019-03-17T01:45:37.634Z,4.53
2019-03-17T01:48:07.223Z,5.17
2019-03-17T01:50:36.810Z,4.73
2019-03-17T01:53:07.405Z,4.57
2019-03-17T01:55:37.912Z,4.97
2019-03-17T01:58:08.823Z,5.57
2019-03-17T02:00:38.421Z,6.13
2019-03-17T02:03:28.968Z,6.13
2019-03-17T02:06:01.618Z,6.30
2019-03-17T02:08:35.556Z,7.10
2019-03-17T02:11:07.016Z,6.87
2019-03-17T02:13:37.999Z,7.30
2019-03-17T02:16:07.654Z,7.67
2019-03-17T02:18:37.297Z,7.87
2019-03-17T02:21:07.073Z,6.37
2019-03-17T02:23:36.787Z,7.10
2019-03-17T02:26:06.432Z,7.20
2019-03-17T02:28:35.973Z,7.30
2019-03-17T02:31:06.890Z,6.80
2019-03-17T02:33:36.481Z,7.50
2019-03-17T02:36:06.547Z,7.50
2019-03-17T02:38:36.099Z,7.13
2019-03-17T02:41:05.729Z,7.70
2019-03-17T02:43:36.411Z,7.20
2019-03-17T02:46:06.106Z,7.43
2019-03-17T02:48:36.193Z,7.53
2019-03-17T02:51:07.322Z,7.40
2019-03-17T02:53:37.447Z,4.80
2019-03-17T02:56:07.050Z,3.70
2019-03-17T02:58:36.862Z,3.20
2019-03-17T03:01:06.480Z,3.13
2019-03-17T03:03:37.558Z,3.57
2019-03-17T03:06:07.406Z,4.53
2019-03-17T03:08:37.066Z,3.30
2019-03-17T03:11:06.922Z,3.90
2019-03-17T03:13:36.532Z,3.50
2019-03-17T03:16:06.542Z,2.90
2019-03-17T03:18:36.298Z,3.63
2019-03-17T03:21:06.051Z,2.80
2019-03-17T03:23:35.729Z,1.33
2019-03-17T03:26:06.645Z,1.27
2019-03-17T03:28:36.589Z,1.50
2019-03-17T03:31:06.971Z,1.53
2019-03-17T03:33:38.032Z,1.90
2019-03-17T03:36:11.363Z,1.90
2019-03-17T03:38:40.145Z,1.87
2019-03-17T03:41:09.715Z,2.87
2019-03-17T03:43:40.650Z,2.00
2019-03-17T03:46:10.895Z,2.40
2019-03-17T03:48:42.313Z,1.97
2019-03-17T03:51:13.341Z,3.10
2019-03-17T03:53:43.423Z,2.70
2019-03-17T03:56:14.634Z,2.17
2019-03-17T03:58:46.534Z,2.33
2019-03-17T04:01:24.659Z,2.47
2019-03-17T04:04:00.227Z,2.00
2019-03-17T04:06:29.945Z,2.13
2019-03-17T04:09:19.794Z,2.43
2019-03-17T04:11:50.464Z,2.20
2019-03-17T04:14:20.932Z,2.10
2019-03-17T04:17:03.703Z,2.00
2019-03-17T04:19:38.150Z,1.63
2019-03-17T04:22:07.706Z,2.07
2019-03-17T04:24:39.235Z,1.70
2019-03-17T04:27:15.149Z,2.00
2019-03-17T04:29:44.702Z,2.07
2019-03-17T04:32:15.749Z,1.90
2019-03-17T04:34:45.237Z,2.00
2019-03-17T04:37:16.228Z,2.10
2019-03-17T04:39:45.734Z,2.00
2019-03-17T04:42:16.351Z,2.00
2019-03-17T04:44:45.819Z,1.93
2019-03-17T04:47:16.321Z,2.00
2019-03-17T04:49:45.781Z,2.50
2019-03-17T04:52:16.668Z,2.90
2019-03-17T04:54:46.100Z,2.17
2019-03-17T04:57:15.594Z,2.73
2019-03-17T04:59:46.349Z,2.70
2019-03-17T05:02:15.855Z,2.70
2019-03-17T05:04:47.098Z,3.50
2019-03-17T05:07:17.835Z,2.27
2019-03-17T05:09:47.717Z,2.73
2019-03-17T05:12:18.616Z,2.90
2019-03-17T05:14:48.060Z,2.30
2019-03-17T05:17:19.514Z,2.93
2019-03-17T05:19:49.909Z,2.17
2019-03-17T05:22:20.221Z,2.00
2019-03-17T05:24:49.794Z,2.30
2019-03-17T05:27:19.571Z,2.13
2019-03-17T05:29:49.177Z,2.43
2019-03-17T05:32:20.131Z,2.33
2019-03-17T05:34:51.396Z,2.37
2019-03-17T05:37:31.552Z,3.63
2019-03-17T05:40:01.101Z,2.17
2019-03-17T05:42:31.606Z,2.30
2019-03-17T05:45:01.261Z,2.20
2019-03-17T05:47:30.867Z,2.73
2019-03-17T05:50:06.873Z,2.40
2019-03-17T05:52:38.026Z,2.50
2019-03-17T05:55:08.546Z,3.10
2019-03-17T05:57:38.219Z,2.00
2019-03-17T06:00:09.338Z,2.37
2019-03-17T06:02:38.760Z,2.17
2019-03-17T06:05:09.341Z,1.70
2019-03-17T06:07:38.840Z,1.97
2019-03-17T06:10:08.402Z,2.17
2019-03-17T06:12:38.134Z,2.17
2019-03-17T06:15:09.583Z,2.20
2019-03-17T06:17:40.255Z,2.13
2019-03-17T06:20:10.709Z,2.00
2019-03-17T06:22:40.224Z,2.63
2019-03-17T06:25:09.894Z,2.20
2019-03-17T06:27:40.700Z,1.93
2019-03-17T06:30:10.459Z,2.20
2019-03-17T06:32:39.926Z,2.20
2019-03-17T06:35:09.511Z,2.30
2019-03-17T06:37:39.122Z,1.80
2019-03-17T06:40:09.236Z,2.07
2019-03-17T06:42:38.740Z,1.93
2019-03-17T06:45:09.852Z,1.57
2019-03-17T06:47:39.465Z,1.00
2019-03-17T06:50:10.480Z,1.07
2019-03-17T06:52:40.701Z,1.40
2019-03-17T06:55:10.975Z,1.20
2019-03-17T06:57:40.639Z,1.73
2019-03-17T07:00:11.091Z,1.30
2019-03-17T07:02:40.620Z,1.23
2019-03-17T07:05:13.145Z,1.30
2019-03-17T07:07:44.964Z,1.40
2019-03-17T07:10:15.642Z,1.20
2019-03-17T07:12:45.278Z,0.93
2019-03-17T07:15:14.892Z,1.43
2019-03-17T07:17:44.371Z,1.70
2019-03-17T07:20:15.244Z,1.10
2019-03-17T07:22:44.803Z,2.03
2019-03-17T07:25:14.351Z,1.63
2019-03-17T07:27:46.162Z,1.73
2019-03-17T07:30:17.504Z,1.53
2019-03-17T07:32:47.179Z,1.93
2019-03-17T07:35:17.227Z,1.70
2019-03-17T07:37:56.806Z,1.43
2019-03-17T07:40:18.920Z,1.70
2019-03-17T07:42:48.449Z,1.33
2019-03-17T07:45:17.988Z,1.33
2019-03-17T07:48:02.643Z,1.70
2019-03-17T07:51:31.429Z,1.70
2019-03-17T07:54:21.146Z,1.70
2019-03-17T07:57:04.458Z,1.83
2019-03-17T08:05:16.067Z,2.17
2019-03-17T08:07:48.979Z,2.50
2019-03-17T08:11:03.898Z,1.70
2019-03-17T08:21:06.023Z,1.73
2019-03-17T08:23:46.507Z,1.70
2019-03-17T08:26:32.089Z,1.60
2019-03-17T08:29:27.968Z,1.97
2019-03-17T08:32:15.659Z,1.90
2019-03-17T08:34:48.558Z,1.80
2019-03-17T08:37:23.152Z,1.80
2019-03-17T08:39:54.981Z,1.60
2019-03-17T08:42:32.358Z,1.57
2019-03-17T08:45:21.263Z,1.63
2019-03-17T08:47:58.750Z,1.67
2019-03-17T08:51:10.632Z,1.40
2019-03-17T08:54:12.673Z,1.30
2019-03-17T08:57:18.240Z,1.40
2019-03-17T08:59:58.222Z,1.50
2019-03-17T09:02:30.966Z,1.33
2019-03-17T09:05:21.712Z,1.37
2019-03-17T09:08:35.554Z,1.50
2019-03-17T09:11:28.113Z,1.80
2019-03-17T09:14:02.552Z,1.97
2019-03-17T09:16:52.421Z,1.10
2019-03-17T09:22:55.374Z,1.20
2019-03-17T09:25:29.835Z,1.07
2019-03-17T09:28:01.498Z,1.43
2019-03-17T09:30:33.381Z,1.17
2019-03-17T09:33:06.173Z,1.20
2019-03-17T09:35:35.672Z,1.10
2019-03-17T09:38:06.633Z,1.67
2019-03-17T09:40:37.101Z,1.23
2019-03-17T09:43:10.498Z,1.60
2019-03-17T09:45:49.356Z,1.40
2019-03-17T09:48:21.728Z,1.20
2019-03-17T09:50:58.639Z,0.90
2019-03-17T09:53:28.819Z,1.40
2019-03-17T09:55:58.781Z,1.40
2019-03-17T09:58:28.411Z,1.10
2019-03-17T10:01:01.304Z,1.17
2019-03-17T10:03:30.879Z,1.60
2019-03-17T10:06:02.049Z,1.57
2019-03-17T10:08:32.144Z,1.30
2019-03-17T10:11:02.882Z,1.50
2019-03-17T10:13:37.108Z,1.00
2019-03-17T10:16:07.049Z,1.43
2019-03-17T10:18:38.695Z,1.47
2019-03-17T10:21:09.529Z,1.17
2019-03-17T10:23:39.741Z,1.30
2019-03-17T10:26:09.434Z,1.13
2019-03-17T10:28:39.113Z,1.20
2019-03-17T10:31:08.657Z,1.30
2019-03-17T10:33:39.821Z,1.03
2019-03-17T10:36:10.609Z,1.60
2019-03-17T10:39:11.992Z,1.57
2019-03-17T10:41:41.662Z,1.40
2019-03-17T10:44:12.950Z,1.63
2019-03-17T10:46:49.174Z,1.57
2019-03-17T10:49:41.683Z,1.37
2019-03-17T10:52:11.485Z,1.60
2019-03-17T10:54:42.682Z,1.47
2019-03-17T10:57:16.060Z,1.70
2019-03-17T10:59:47.029Z,1.50
2019-03-17T11:02:16.862Z,1.70
2019-03-17T11:04:50.126Z,1.70
2019-03-17T11:07:21.668Z,1.70
2019-03-17T11:09:54.521Z,1.13
2019-03-17T11:12:25.639Z,1.30
2019-03-17T11:14:55.685Z,1.30
2019-03-17T11:17:25.366Z,1.57
2019-03-17T11:19:55.103Z,1.13
2019-03-17T11:22:25.647Z,1.20
2019-03-17T11:24:58.263Z,1.10
2019-03-17T11:27:28.185Z,1.30
2019-03-17T11:30:00.342Z,1.23
2019-03-17T11:32:29.917Z,1.40
2019-03-17T11:34:59.605Z,1.13
2019-03-17T11:37:32.387Z,1.33
2019-03-17T11:40:02.439Z,0.83
2019-03-17T11:42:40.091Z,1.10
2019-03-17T11:45:11.615Z,1.40
2019-03-17T11:47:41.230Z,1.10
2019-03-17T11:50:13.789Z,1.17
2019-03-17T11:52:43.818Z,1.70
2019-03-17T11:55:14.030Z,1.10
2019-03-17T11:57:43.972Z,1.00
2019-03-17T12:00:15.303Z,1.27
2019-03-17T12:02:47.670Z,1.07
2019-03-17T12:05:23.389Z,1.13
2019-03-17T12:07:53.236Z,1.37
2019-03-17T12:10:23.028Z,1.40
2019-03-17T12:12:53.285Z,1.10
2019-03-17T12:15:23.200Z,1.00
2019-03-17T12:17:53.892Z,1.47
2019-03-17T12:20:26.575Z,1.27
2019-03-17T12:22:56.865Z,1.30
2019-03-17T12:25:26.512Z,1.50
2019-03-17T12:27:56.662Z,1.33
2019-03-17T12:30:27.730Z,1.40
2019-03-17T12:33:00.695Z,1.10
2019-03-17T12:35:31.512Z,1.00
2019-03-17T12:38:01.457Z,1.30
2019-03-17T12:40:31.506Z,1.20
2019-03-17T12:43:01.229Z,1.87
2019-03-17T12:45:30.940Z,1.40
2019-03-17T12:48:00.469Z,1.30
2019-03-17T12:50:29.984Z,1.37
2019-03-17T12:52:59.734Z,1.40
2019-03-17T12:55:30.868Z,1.83
2019-03-17T12:58:00.539Z,1.20
2019-03-17T13:00:31.667Z,1.17
2019-03-17T13:03:02.794Z,0.90
2019-03-17T13:05:32.663Z,1.60
2019-03-17T13:08:02.390Z,1.53
2019-03-17T13:10:32.304Z,1.33
2019-03-17T13:13:03.085Z,1.17
2019-03-17T13:15:35.672Z,1.47
2019-03-17T13:18:05.644Z,1.40
2019-03-17T13:20:36.591Z,1.33
2019-03-17T13:23:06.505Z,1.13
2019-03-17T13:25:36.719Z,1.10
2019-03-17T13:28:09.532Z,1.27
2019-03-17T13:30:41.701Z,1.57
2019-03-17T13:33:14.173Z,1.00
2019-03-17T13:35:46.316Z,1.07
2019-03-17T13:38:16.436Z,1.30
2019-03-17T13:40:47.261Z,1.10
2019-03-17T13:43:20.156Z,1.70
2019-03-17T13:45:50.147Z,1.33
2019-03-17T13:48:21.959Z,1.20
2019-03-17T13:50:54.900Z,1.40
2019-03-17T13:53:25.677Z,1.20
2019-03-17T13:55:55.426Z,1.50
2019-03-17T13:58:25.228Z,1.10
2019-03-17T14:00:54.999Z,0.97
2019-03-17T14:03:26.831Z,1.13
2019-03-17T14:05:56.511Z,1.10
2019-03-17T14:08:28.119Z,1.40
2019-03-17T14:10:59.750Z,1.13
2019-03-17T14:13:33.920Z,1.20
2019-03-17T14:16:03.897Z,1.70
2019-03-17T14:18:33.761Z,1.10
2019-03-17T14:21:03.625Z,1.20
2019-03-17T14:23:37.190Z,1.60
2019-03-17T14:26:07.238Z,1.50
2019-03-17T14:28:37.648Z,1.10
2019-03-17T14:31:07.233Z,1.53
2019-03-17T14:33:36.837Z,1.33
2019-03-17T14:36:06.345Z,1.30
2019-03-17T14:38:35.840Z,1.73
2019-03-17T14:41:05.559Z,1.37
2019-03-17T14:43:35.135Z,1.20
2019-03-17T14:46:05.072Z,1.50
2019-03-17T14:48:35.192Z,1.50
2019-03-17T14:51:04.861Z,1.70
2019-03-17T14:53:34.628Z,1.37
2019-03-17T14:56:04.736Z,1.50
2019-03-17T14:58:34.434Z,1.13
2019-03-17T15:01:04.187Z,1.13
2019-03-17T15:03:34.195Z,1.20
2019-03-17T15:06:04.147Z,1.10
2019-03-17T15:08:33.887Z,0.80
2019-03-17T15:11:10.303Z,1.00
2019-03-17T15:13:41.248Z,1.30
2019-03-17T15:16:11.685Z,0.80
2019-03-17T15:18:41.977Z,1.20
2019-03-17T15:21:12.973Z,1.17
2019-03-17T15:23:44.327Z,1.13
2019-03-17T15:26:15.042Z,1.40
2019-03-17T15:28:44.635Z,1.03
2019-03-17T15:31:15.495Z,1.47
2019-03-17T15:33:45.568Z,1.37
2019-03-17T15:36:15.134Z,1.17
2019-03-17T15:38:45.004Z,1.40
2019-03-17T15:41:18.901Z,1.57
2019-03-17T15:43:46.571Z,1.03
2019-03-17T15:46:16.090Z,1.70
2019-03-17T15:48:45.948Z,1.07
2019-03-17T15:51:20.603Z,1.27
2019-03-17T15:53:47.072Z,1.47
2019-03-17T15:56:16.813Z,1.50
2019-03-17T15:58:47.084Z,1.70
2019-03-17T16:01:16.853Z,1.40
2019-03-17T16:03:46.615Z,1.40
2019-03-17T16:06:18.809Z,1.60
2019-03-17T16:08:47.575Z,1.40
2019-03-17T16:11:30.152Z,1.07
2019-03-17T16:13:48.916Z,1.40
2019-03-17T16:16:18.496Z,1.07
2019-03-17T16:18:48.187Z,1.47
2019-03-17T16:21:17.852Z,1.37
2019-03-17T16:23:47.540Z,1.30
2019-03-17T16:26:17.062Z,1.27
2019-03-17T16:28:47.120Z,1.63
2019-03-17T16:31:16.865Z,2.03
2019-03-17T16:33:46.591Z,1.70
2019-03-17T16:36:16.545Z,1.73
2019-03-17T16:38:46.106Z,1.30
2019-03-17T16:41:15.623Z,1.27
2019-03-17T16:43:45.208Z,1.33
2019-03-17T16:46:14.794Z,1.30
2019-03-17T16:48:44.610Z,1.17
2019-03-17T16:51:14.148Z,1.30
2019-03-17T16:53:43.690Z,1.20
2019-03-17T16:56:14.663Z,1.20
2019-03-17T16:58:44.193Z,1.27
2019-03-17T17:01:13.931Z,1.33
2019-03-17T17:03:43.820Z,1.10
2019-03-17T17:06:13.441Z,1.10
2019-03-17T17:08:43.312Z,1.50
2019-03-17T17:11:13.432Z,1.20
2019-03-17T17:13:43.520Z,1.13
2019-03-17T17:16:13.161Z,1.33
2019-03-17T17:18:43.052Z,1.33
2019-03-17T17:21:12.675Z,1.53
2019-03-17T17:23:42.828Z,1.53
2019-03-17T17:26:12.597Z,1.13
2019-03-17T17:28:42.887Z,1.40
2019-03-17T17:31:13.774Z,1.53
2019-03-17T17:33:43.513Z,1.43
2019-03-17T17:36:13.338Z,1.20
2019-03-17T17:38:43.441Z,1.20
2019-03-17T17:41:13.171Z,1.10
2019-03-17T17:43:43.061Z,1.37
2019-03-17T17:46:12.559Z,1.80
2019-03-17T17:48:42.249Z,1.70
2019-03-17T17:51:11.985Z,1.70
2019-03-17T17:53:41.899Z,1.40
2019-03-17T17:56:11.677Z,1.80
2019-03-17T17:58:41.682Z,1.67
2019-03-17T18:01:11.603Z,1.47
2019-03-17T18:03:59.279Z,1.17
2019-03-17T18:07:15.576Z,1.27
2019-03-17T18:09:45.810Z,1.50
2019-03-17T18:12:20.813Z,1.07
2019-03-17T18:14:48.802Z,1.33
2019-03-17T18:20:15.555Z,1.60
2019-03-17T18:22:45.443Z,1.23
2019-03-17T18:25:17.134Z,1.67
2019-03-17T18:27:48.387Z,1.23
2019-03-17T18:30:25.311Z,1.50
2019-03-17T18:32:56.964Z,1.73
2019-03-17T18:36:22.278Z,1.20
2019-03-17T18:38:55.802Z,1.00
2019-03-17T18:41:39.549Z,1.00
2019-03-17T18:44:17.985Z,0.90
2019-03-17T18:46:52.802Z,1.10
2019-03-17T18:49:23.576Z,1.10
2019-03-17T18:51:54.372Z,1.10
2019-03-17T18:54:23.138Z,1.60
2019-03-17T18:56:52.953Z,1.40
2019-03-17T18:59:23.803Z,2.00
2019-03-17T19:01:54.120Z,1.43
2019-03-17T19:04:24.018Z,1.87
2019-03-17T19:07:07.181Z,1.30
2019-03-17T19:09:38.093Z,2.10
2019-03-17T19:12:18.540Z,1.83
2019-03-17T19:14:52.297Z,2.20
2019-03-17T19:17:34.044Z,2.03
2019-03-17T19:20:05.255Z,1.63
2019-03-17T19:22:35.740Z,2.13
2019-03-17T19:25:06.054Z,1.97
2019-03-17T19:27:37.447Z,1.67
2019-03-17T19:33:13.634Z,1.70
2019-03-17T19:39:01.497Z,1.43
2019-03-17T19:41:38.396Z,2.20
2019-03-17T19:44:09.245Z,1.67
2019-03-17T19:46:41.262Z,2.03
2019-03-17T19:49:33.188Z,2.00
2019-03-17T19:52:04.852Z,1.60
2019-03-17T19:54:36.305Z,1.87
2019-03-17T19:57:05.984Z,2.03
2019-03-17T19:59:36.979Z,2.43
2019-03-17T20:02:17.964Z,1.87
2019-03-17T20:04:47.757Z,1.77
2019-03-17T20:07:18.318Z,2.20
2019-03-17T20:10:27.300Z,2.73
2019-03-17T20:13:11.616Z,2.43
2019-03-17T20:15:36.746Z,2.20
2019-03-17T20:18:06.560Z,1.53
2019-03-17T20:20:36.259Z,1.57
2019-03-17T20:23:05.920Z,1.67
2019-03-17T20:25:35.688Z,1.90
2019-03-17T20:28:05.369Z,1.50
2019-03-17T20:30:35.581Z,2.23
2019-03-17T20:33:05.470Z,2.00
2019-03-17T20:35:35.199Z,1.90
2019-03-17T20:38:09.058Z,1.70
2019-03-17T20:40:39.107Z,1.83
2019-03-17T20:43:23.774Z,1.73
2019-03-17T20:45:46.439Z,1.83
2019-03-17T20:48:17.017Z,1.87
2019-03-17T20:50:59.705Z,1.80
2019-03-17T20:53:31.841Z,1.93
2019-03-17T20:56:02.116Z,2.13
2019-03-17T20:58:32.288Z,1.70
2019-03-17T21:01:02.282Z,2.03
2019-03-17T21:03:33.317Z,1.73
2019-03-17T21:06:03.110Z,1.70
2019-03-17T21:08:33.166Z,1.50
2019-03-17T21:11:03.225Z,1.80
2019-03-17T21:13:46.255Z,1.47
2019-03-17T21:16:07.994Z,1.77
2019-03-17T21:18:42.234Z,1.77
2019-03-17T21:21:33.671Z,2.10
2019-03-17T21:24:03.812Z,1.50
2019-03-17T21:29:36.409Z,1.67
2019-03-17T21:32:06.496Z,1.60
2019-03-17T21:34:36.416Z,2.07
2019-03-17T21:37:06.412Z,1.80
2019-03-17T21:39:36.098Z,2.90
2019-03-17T21:42:05.904Z,2.20
2019-03-17T21:44:35.505Z,1.83
2019-03-17T21:47:05.379Z,1.90
2019-03-17T21:49:35.206Z,2.40
2019-03-17T21:52:05.837Z,2.80
2019-03-17T21:54:35.683Z,2.17
2019-03-17T21:57:05.426Z,2.00
2019-03-17T21:59:35.234Z,2.13
2019-03-17T22:02:12.747Z,1.77
2019-03-17T22:04:36.128Z,2.20
2019-03-17T22:07:05.916Z,1.80
2019-03-17T22:09:35.607Z,2.30
2019-03-17T22:12:06.557Z,2.23
2019-03-17T22:14:37.275Z,1.70
2019-03-17T22:17:08.955Z,1.90
2019-03-17T22:19:39.924Z,2.97
2019-03-17T22:22:11.005Z,1.73
2019-03-17T22:24:40.859Z,2.20
2019-03-17T22:27:12.517Z,2.10
2019-03-17T22:29:42.044Z,2.20
2019-03-17T22:32:13.778Z,1.80
2019-03-17T22:34:43.338Z,1.70
2019-03-17T22:37:16.349Z,2.10
2019-03-17T22:39:46.183Z,1.50
2019-03-17T22:42:15.874Z,1.57
2019-03-17T22:44:54.794Z,2.10
2019-03-17T22:47:38.032Z,1.40
2019-03-17T22:54:02.703Z,1.60
2019-03-17T22:56:33.892Z,1.80
2019-03-17T23:03:45.096Z,1.97
2019-03-17T23:06:15.767Z,1.47
2019-03-17T23:08:45.443Z,2.33
2019-03-17T23:11:16.329Z,2.17
2019-03-17T23:13:45.897Z,2.30
2019-03-17T23:16:16.889Z,1.87
2019-03-17T23:19:41.093Z,1.97
2019-03-17T23:25:35.618Z,1.77
2019-03-17T23:28:08.990Z,2.43
2019-03-17T23:33:36.325Z,2.17
2019-03-17T23:39:40.268Z,1.77
2019-03-17T23:42:09.983Z,1.73
2019-03-17T23:44:48.532Z,2.07
2019-03-17T23:47:11.054Z,1.63
2019-03-17T23:49:40.652Z,1.73
2019-03-17T23:52:16.383Z,2.00
2019-03-17T23:54:46.272Z,1.80
2019-03-17T23:57:15.967Z,2.60
2019-03-17T23:59:47.271Z,2.80
